M I D A S
Marine Information and Data Acquisition System
Tripno 753 of the Zeeleeuw from 2004-07-29 09:05:46 to 2004-07-29 12:11:41
Back to CruiseResearch ActivitiesStationsMapUnderway DataData graphs

EquipmentUnitsComments
TimeDGPSUTC
LatitudeDGPSDM.mWGS84
LongitudeDGPSDM.mWGS84
SpeedMeteo Stationm/sRelative wind speed
DirectionMeteo StationdegRelative wind direction
TemperatureMeteo Stationdeg CelciusAir temperature
PressureMeteo StationPaAtmospheric pressure
HumidityMeteo Station%Relative humidity
Missing or incorrect values are displayed as -999
Metereological data collected by the RV Zeeleeuw from 2004-07-29 09:05:46 to 2004-07-29 12:11:41
                                                                                    Next 1000 lines
Time Latitude Longitude Speed Direction Temperature Pressure Humidity
2004-07-29 09:05:56 51°11.018 2°27.173 5.1 358 18.9 101540 72
2004-07-29 09:06:01 51°11.011 2°27.149 4.9 360 18.9 101540 72
2004-07-29 09:06:06 51°11.005 2°27.125 4.8 2 18.9 101540 72
2004-07-29 09:06:11 51°10.998 2°27.101 4.8 358 18.9 101540 72
2004-07-29 09:06:14 51°10.994 2°27.087 4.7 357 18.9 101540 72
2004-07-29 09:06:21 51°10.984 2°27.053 5.1 2 18.9 101540 72
2004-07-29 09:06:25 51°10.979 2°27.034 4.9 358 18.9 101540 72
2004-07-29 09:06:29 51°10.973 2°27.015 5 358 18.9 101540 72
2004-07-29 09:06:36 51°10.963 2°26.982 4.7 356 18.9 101540 73
2004-07-29 09:06:41 51°10.956 2°26.958 4.9 357 18.9 101540 73
2004-07-29 09:06:46 51°10.95 2°26.933 4.7 357 18.9 101540 73
2004-07-29 09:06:50 51°10.944 2°26.914 4.5 356 18.9 101540 73
2004-07-29 09:06:54 51°10.939 2°26.895 4.3 356 18.9 101540 73
2004-07-29 09:07:01 51°10.93 2°26.86 4.2 356 18.9 101540 73
2004-07-29 09:07:06 51°10.924 2°26.836 4.6 355 18.9 101540 73
2004-07-29 09:07:10 51°10.919 2°26.816 4.1 360 18.9 101540 73
2004-07-29 09:07:16 51°10.915 2°26.785 4.2 358 18.9 101540 73
2004-07-29 09:07:21 51°10.912 2°26.759 4.2 4 18.9 101540 73
2004-07-29 09:07:25 51°10.911 2°26.738 4.1 1 18.9 101530 73
2004-07-29 09:07:30 51°10.911 2°26.712 4 10 18.9 101530 73
2004-07-29 09:07:35 51°10.911 2°26.685 4 9 18.9 101540 72
2004-07-29 09:07:41 51°10.913 2°26.654 4 11 18.9 101540 72
2004-07-29 09:07:46 51°10.917 2°26.628 4 12 18.9 101540 73
2004-07-29 09:07:50 51°10.921 2°26.608 3.9 18 18.9 101540 73
2004-07-29 09:07:56 51°10.928 2°26.578 4 18 18.9 101540 73
2004-07-29 09:08:01 51°10.934 2°26.553 4.2 21 18.9 101540 73
2004-07-29 09:08:05 51°10.939 2°26.533 3.9 19 18.9 101540 73
2004-07-29 09:08:10 51°10.947 2°26.509 4.2 20 18.9 101540 73
2004-07-29 09:08:16 51°10.955 2°26.479 2.6 24 18.9 101540 73
2004-07-29 09:08:21 51°10.963 2°26.455 4.3 22 18.9 101540 73
2004-07-29 09:08:26 51°10.97 2°26.43 4.3 23 18.9 101540 73
2004-07-29 09:08:30 51°10.977 2°26.411 4.5 22 18.9 101540 73
2004-07-29 09:08:36 51°10.986 2°26.382 5 22 18.9 101540 73
2004-07-29 09:08:41 51°10.995 2°26.358 4.9 27 18.9 101540 73
2004-07-29 09:08:46 51°11.006 2°26.337 5 28 18.9 101530 73
2004-07-29 09:08:50 51°11.015 2°26.32 5.2 33 18.9 101530 73
2004-07-29 09:08:56 51°11.03 2°26.297 5.6 31 18.9 101530 73
2004-07-29 09:09:01 51°11.043 2°26.279 5.7 29 18.9 101530 73
2004-07-29 09:09:06 51°11.057 2°26.261 5.7 33 18.9 101530 73
2004-07-29 09:09:10 51°11.068 2°26.247 5.9 33 18.9 101530 73
2004-07-29 09:09:16 51°11.085 2°26.228 6 34 18.9 101530 73
2004-07-29 09:09:21 51°11.1 2°26.212 6.3 33 18.9 101530 73
2004-07-29 09:09:26 51°11.115 2°26.196 6.3 30 18.9 101530 73
2004-07-29 09:09:30 51°11.127 2°26.183 6.3 33 18.9 101530 73
2004-07-29 09:09:33 51°11.136 2°26.174 6.8 28 18.9 101530 73
2004-07-29 09:09:42 51°11.163 2°26.147 6.9 31 18.8 101530 73
2004-07-29 09:09:48 51°11.182 2°26.132 7.4 31 18.8 101530 73
2004-07-29 09:09:53 51°11.199 2°26.122 7.2 31 18.8 101530 74
2004-07-29 09:09:58 51°11.216 2°26.113 7.5 31 18.8 101530 74
2004-07-29 09:10:02 51°11.231 2°26.109 7.5 29 18.8 101530 74
2004-07-29 09:10:05 51°11.241 2°26.106 8.4 28 18.8 101530 74
2004-07-29 09:10:12 51°11.267 2°26.101 8 28 18.8 101530 74
2004-07-29 09:10:18 51°11.289 2°26.1 8.4 28 18.8 101530 74
2004-07-29 09:10:22 51°11.304 2°26.099 8.5 27 18.8 101530 74
2004-07-29 09:10:27 51°11.323 2°26.099 8.5 27 18.8 101530 74
2004-07-29 09:10:33 51°11.345 2°26.098 8.4 28 18.8 101530 74
2004-07-29 09:10:38 51°11.364 2°26.099 8.5 26 18.8 101530 74
2004-07-29 09:10:41 51°11.375 2°26.099 8.6 28 18.8 101520 74
2004-07-29 09:10:48 51°11.402 2°26.1 8.3 28 18.8 101520 74
2004-07-29 09:10:51 51°11.413 2°26.1 8.5 30 18.8 101520 74
2004-07-29 09:10:57 51°11.436 2°26.1 8.7 28 18.8 101520 74
2004-07-29 09:11:01 51°11.451 2°26.101 8.6 30 18.8 101530 74
2004-07-29 09:11:08 51°11.477 2°26.101 8.6 28 18.8 101530 74
2004-07-29 09:11:13 51°11.496 2°26.101 8.5 28 18.8 101520 74
2004-07-29 09:11:18 51°11.515 2°26.102 8.9 30 18.8 101520 74
2004-07-29 09:11:23 51°11.534 2°26.103 8.6 28 18.8 101520 74
2004-07-29 09:11:28 51°11.553 2°26.103 8.8 30 18.8 101520 74
2004-07-29 09:11:32 51°11.568 2°26.104 8.7 31 18.7 101530 74
2004-07-29 09:11:38 51°11.592 2°26.103 8.5 31 18.7 101530 74
2004-07-29 09:11:42 51°11.607 2°26.103 8.8 32 18.7 101520 74
2004-07-29 09:11:48 51°11.63 2°26.103 8.5 31 18.7 101520 74
2004-07-29 09:11:53 51°11.65 2°26.103 8.9 31 18.7 101520 75
2004-07-29 09:11:55 51°11.657 2°26.103 8.7 32 18.7 101520 75
2004-07-29 09:12:01 51°11.681 2°26.103 8.5 30 18.7 101520 75
2004-07-29 09:12:08 51°11.708 2°26.103 8.8 32 18.7 101520 75
2004-07-29 09:12:13 51°11.728 2°26.103 8.6 31 18.7 101520 75
2004-07-29 09:12:17 51°11.743 2°26.103 8.8 32 18.7 101520 75
2004-07-29 09:12:22 51°11.763 2°26.103 8.8 32 18.6 101520 74
2004-07-29 09:12:28 51°11.786 2°26.103 8.8 33 18.6 101520 74
2004-07-29 09:12:33 51°11.806 2°26.103 8.8 31 18.6 101520 74
2004-07-29 09:12:38 51°11.825 2°26.103 8.9 32 18.6 101520 74
2004-07-29 09:12:42 51°11.841 2°26.102 8.7 33 18.6 101520 75
2004-07-29 09:12:47 51°11.861 2°26.102 8.8 31 18.6 101520 75
2004-07-29 09:12:53 51°11.884 2°26.102 8.9 31 18.6 101520 74
2004-07-29 09:12:58 51°11.904 2°26.103 8.6 31 18.6 101520 74
2004-07-29 09:13:01 51°11.916 2°26.103 8.9 33 18.6 101520 74
2004-07-29 09:13:08 51°11.943 2°26.103 8.9 33 18.6 101520 74
2004-07-29 09:13:13 51°11.963 2°26.103 8.7 33 18.6 101520 74
2004-07-29 09:13:18 51°11.983 2°26.102 8.7 32 18.6 101520 74
2004-07-29 09:13:22 51°11.999 2°26.102 9.1 34 18.5 101520 74
2004-07-29 09:13:28 51°12.022 2°26.102 8.8 32 18.5 101520 74
2004-07-29 09:13:33 51°12.042 2°26.102 8.6 31 18.5 101520 74
2004-07-29 09:13:38 51°12.062 2°26.102 9.2 32 18.5 101520 74
2004-07-29 09:13:42 51°12.078 2°26.102 9.4 33 18.5 101510 74
2004-07-29 09:13:48 51°12.102 2°26.103 9.4 30 18.5 101510 74
2004-07-29 09:13:52 51°12.118 2°26.104 9 34 18.5 101520 74
2004-07-29 09:13:58 51°12.141 2°26.105 8.7 33 18.5 101520 74
2004-07-29 09:14:02 51°12.157 2°26.105 8.7 36 18.4 101520 74
2004-07-29 09:14:05 51°12.169 2°26.106 9 34 18.4 101520 74
2004-07-29 09:14:12 51°12.197 2°26.106 9 32 18.4 101520 74
2004-07-29 09:14:18 51°12.221 2°26.106 9 33 18.4 101520 74
2004-07-29 09:14:22 51°12.237 2°26.106 9.1 34 18.4 101520 75
2004-07-29 09:14:27 51°12.256 2°26.106 8.7 33 18.4 101520 75
2004-07-29 09:14:33 51°12.28 2°26.106 8.5 33 18.4 101520 75
2004-07-29 09:14:37 51°12.296 2°26.106 8.5 33 18.4 101520 75
2004-07-29 09:14:42 51°12.316 2°26.105 9 35 18.4 101520 74
2004-07-29 09:14:48 51°12.339 2°26.106 9 33 18.4 101520 74
2004-07-29 09:14:52 51°12.355 2°26.107 9.1 34 18.4 101520 75
2004-07-29 09:14:56 51°12.371 2°26.109 9.4 31 18.4 101520 75
2004-07-29 09:15:00 51°12.387 2°26.111 9.2 32 18.3 101520 75
2004-07-29 09:15:08 51°12.419 2°26.118 9.3 31 18.3 101520 75
2004-07-29 09:15:13 51°12.438 2°26.123 9.5 32 18.3 101520 75
2004-07-29 09:15:18 51°12.458 2°26.129 9.2 32 18.3 101520 75
2004-07-29 09:15:22 51°12.474 2°26.133 9.5 27 18.3 101520 75
2004-07-29 09:15:28 51°12.498 2°26.141 9.7 32 18.3 101520 75
2004-07-29 09:15:33 51°12.517 2°26.147 9.5 32 18.3 101520 75
2004-07-29 09:15:38 51°12.537 2°26.153 9.4 33 18.3 101520 75
2004-07-29 09:15:41 51°12.549 2°26.157 9.1 30 18.3 101520 75
2004-07-29 09:15:48 51°12.577 2°26.166 9.4 34 18.3 101520 75
2004-07-29 09:15:53 51°12.597 2°26.171 9.3 32 18.3 101520 75
2004-07-29 09:15:58 51°12.616 2°26.177 9.1 32 18.3 101520 75
2004-07-29 09:16:03 51°12.636 2°26.183 9.2 32 18.3 101520 75
2004-07-29 09:16:08 51°12.656 2°26.189 9.1 31 18.3 101520 75
2004-07-29 09:16:12 51°12.672 2°26.193 9.1 30 18.3 101510 75
2004-07-29 09:16:18 51°12.696 2°26.2 9.4 34 18.3 101510 75
2004-07-29 09:16:22 51°12.711 2°26.204 9.6 31 18.3 101510 75
2004-07-29 09:16:28 51°12.735 2°26.211 9.1 30 18.3 101510 75
2004-07-29 09:16:33 51°12.755 2°26.216 9.4 30 18.3 101510 75
2004-07-29 09:16:38 51°12.775 2°26.222 9.2 33 18.3 101510 75
2004-07-29 09:16:42 51°12.791 2°26.227 9.1 31 18.3 101520 75
2004-07-29 09:16:48 51°12.814 2°26.233 9.3 32 18.3 101520 75
2004-07-29 09:16:53 51°12.834 2°26.239 9.4 32 18.3 101510 75
2004-07-29 09:16:58 51°12.854 2°26.245 9.5 30 18.3 101510 75
2004-07-29 09:17:02 51°12.87 2°26.25 9.9 33 18.3 101520 75
2004-07-29 09:17:08 51°12.894 2°26.256 9.8 32 18.3 101520 75
2004-07-29 09:17:13 51°12.913 2°26.262 9.6 32 18.3 101510 75
2004-07-29 09:17:18 51°12.933 2°26.268 9.1 31 18.3 101510 75
2004-07-29 09:17:22 51°12.949 2°26.272 8.9 32 18.3 101520 75
2004-07-29 09:17:28 51°12.973 2°26.279 9.4 32 18.3 101520 75
2004-07-29 09:17:33 51°12.992 2°26.284 8.8 30 18.3 101520 75
2004-07-29 09:17:38 51°13.012 2°26.29 9.3 32 18.3 101520 75
2004-07-29 09:17:42 51°13.028 2°26.294 9.4 34 18.3 101510 75
2004-07-29 09:17:48 51°13.052 2°26.301 9.7 32 18.3 101510 75
2004-07-29 09:17:52 51°13.068 2°26.306 9.5 34 18.3 101520 75
2004-07-29 09:17:58 51°13.091 2°26.313 9.4 31 18.3 101520 75
2004-07-29 09:18:02 51°13.107 2°26.317 9.6 32 18.3 101510 75
2004-07-29 09:18:05 51°13.119 2°26.32 9.5 35 18.3 101510 75
2004-07-29 09:18:12 51°13.147 2°26.328 9.2 32 18.3 101520 75
2004-07-29 09:18:18 51°13.171 2°26.334 9.1 33 18.3 101520 75
2004-07-29 09:18:22 51°13.187 2°26.339 9.6 33 18.3 101510 75
2004-07-29 09:18:28 51°13.211 2°26.345 9.1 29 18.3 101510 75
2004-07-29 09:18:33 51°13.23 2°26.351 9.4 30 18.3 101520 75
2004-07-29 09:18:38 51°13.25 2°26.357 9.4 32 18.3 101520 75
2004-07-29 09:18:41 51°13.262 2°26.36 9.5 31 18.3 101510 75
2004-07-29 09:18:48 51°13.29 2°26.369 9.4 30 18.3 101510 75
2004-07-29 09:18:52 51°13.306 2°26.374 9.6 29 18.3 101520 75
2004-07-29 09:18:57 51°13.325 2°26.382 9.7 25 18.3 101520 75
2004-07-29 09:19:02 51°13.344 2°26.392 10 25 18.4 101520 75
2004-07-29 09:19:08 51°13.367 2°26.406 10.4 26 18.4 101520 75
2004-07-29 09:19:12 51°13.382 2°26.417 10.7 26 18.3 101520 75
2004-07-29 09:19:18 51°13.404 2°26.433 9.8 24 18.3 101520 75
2004-07-29 09:19:22 51°13.419 2°26.445 10.3 25 18.4 101520 75
2004-07-29 09:19:25 51°13.429 2°26.454 10 25 18.4 101520 75
2004-07-29 09:19:33 51°13.458 2°26.478 10.3 23 18.4 101510 74
2004-07-29 09:19:38 51°13.476 2°26.494 10.1 21 18.4 101510 74
2004-07-29 09:19:42 51°13.491 2°26.506 10.8 24 18.4 101510 74
2004-07-29 09:19:45 51°13.502 2°26.516 10.5 21 18.4 101510 74
2004-07-29 09:19:52 51°13.527 2°26.538 10.7 21 18.5 101510 74
2004-07-29 09:19:58 51°13.548 2°26.56 10.2 23 18.5 101510 74
2004-07-29 09:20:02 51°13.561 2°26.574 10 21 18.5 101520 74
2004-07-29 09:20:08 51°13.581 2°26.597 10.4 22 18.5 101520 74
2004-07-29 09:20:12 51°13.595 2°26.612 10.2 23 18.5 101520 74
2004-07-29 09:20:18 51°13.615 2°26.636 10.1 21 18.5 101520 74
2004-07-29 09:20:21 51°13.625 2°26.648 10.3 21 18.5 101510 74
2004-07-29 09:20:27 51°13.644 2°26.671 10.3 21 18.5 101510 74
2004-07-29 09:20:33 51°13.664 2°26.695 10.4 21 18.6 101510 74
2004-07-29 09:20:37 51°13.677 2°26.711 9.9 20 18.6 101510 74
2004-07-29 09:20:42 51°13.693 2°26.731 10.4 22 18.6 101520 74
2004-07-29 09:20:48 51°13.713 2°26.755 10.2 20 18.6 101520 74
2004-07-29 09:20:53 51°13.729 2°26.777 10.7 20 18.6 101520 74
2004-07-29 09:20:58 51°13.744 2°26.798 10.1 21 18.6 101520 74
2004-07-29 09:21:02 51°13.757 2°26.815 10.1 23 18.6 101520 74
2004-07-29 09:21:08 51°13.775 2°26.841 10 22 18.6 101520 74
2004-07-29 09:21:13 51°13.79 2°26.864 10.2 21 18.7 101510 74
2004-07-29 09:21:17 51°13.803 2°26.881 10.6 19 18.7 101510 74
2004-07-29 09:21:22 51°13.818 2°26.903 10.7 22 18.7 101510 74
2004-07-29 09:21:25 51°13.827 2°26.916 10.2 22 18.7 101510 74
2004-07-29 09:21:33 51°13.852 2°26.952 10.1 20 18.7 101520 74
2004-07-29 09:21:38 51°13.867 2°26.973 10.2 20 18.7 101520 74
2004-07-29 09:21:41 51°13.877 2°26.986 10.7 19 18.7 101520 74
2004-07-29 09:21:48 51°13.898 2°27.017 10.1 21 18.7 101520 74
2004-07-29 09:21:52 51°13.911 2°27.035 4.4 22 18.8 101510 74
2004-07-29 09:21:58 51°13.929 2°27.061 9.9 19 18.8 101510 74
2004-07-29 09:22:02 51°13.941 2°27.078 9.7 22 18.8 101510 74
2004-07-29 09:22:08 51°13.96 2°27.105 9.9 20 18.8 101510 74
2004-07-29 09:22:13 51°13.975 2°27.127 10.2 20 18.8 101510 74
2004-07-29 09:22:17 51°13.987 2°27.144 9.8 23 18.8 101510 74
2004-07-29 09:22:21 51°14 2°27.162 10.1 23 18.8 101510 74
2004-07-29 09:22:28 51°14.021 2°27.192 10 22 18.8 101510 74
2004-07-29 09:22:30 51°14.028 2°27.201 9.9 21 18.8 101510 74
2004-07-29 09:22:38 51°14.052 2°27.235 10.7 21 18.8 101510 74
2004-07-29 09:22:41 51°14.061 2°27.248 10.5 20 18.8 101510 74
2004-07-29 09:22:48 51°14.083 2°27.279 10.3 23 18.8 101510 74
2004-07-29 09:22:53 51°14.098 2°27.3 10.3 23 18.9 101510 74
2004-07-29 09:22:57 51°14.111 2°27.318 9.9 21 18.9 101510 74
2004-07-29 09:23:02 51°14.126 2°27.34 9.8 20 18.9 101510 73
2004-07-29 09:23:08 51°14.144 2°27.367 10.5 21 18.9 101510 73
2004-07-29 09:23:12 51°14.156 2°27.385 10.3 21 18.9 101510 73
2004-07-29 09:23:18 51°14.174 2°27.411 9.9 21 18.9 101510 73
2004-07-29 09:23:22 51°14.186 2°27.429 10 21 18.9 101510 73
2004-07-29 09:23:28 51°14.205 2°27.456 10.5 22 18.9 101510 73
2004-07-29 09:23:32 51°14.217 2°27.474 10.2 21 18.9 101510 73
2004-07-29 09:23:37 51°14.232 2°27.495 10.5 21 18.9 101510 73
2004-07-29 09:23:41 51°14.244 2°27.513 10.6 20 18.9 101510 73
2004-07-29 09:23:48 51°14.266 2°27.544 10.2 20 18.9 101510 73
2004-07-29 09:23:53 51°14.281 2°27.566 10.7 20 18.9 101510 73
2004-07-29 09:23:58 51°14.297 2°27.588 10.7 20 18.9 101510 73
2004-07-29 09:24:02 51°14.309 2°27.606 10.4 21 18.9 101510 73
2004-07-29 09:24:08 51°14.327 2°27.633 10.3 21 18.9 101510 73
2004-07-29 09:24:10 51°14.333 2°27.642 10 20 19 101510 73
2004-07-29 09:24:18 51°14.358 2°27.678 10.6 20 19 101510 73
2004-07-29 09:24:21 51°14.367 2°27.691 10.3 21 19 101510 73
2004-07-29 09:24:28 51°14.388 2°27.722 9.9 22 19 101510 73
2004-07-29 09:24:33 51°14.404 2°27.743 10.2 22 19 101510 73
2004-07-29 09:24:38 51°14.419 2°27.765 10.1 19 19 101510 73
2004-07-29 09:24:41 51°14.429 2°27.778 10.6 20 19 101510 73
2004-07-29 09:24:48 51°14.45 2°27.809 10 19 19 101510 73
2004-07-29 09:24:53 51°14.466 2°27.831 10.4 20 19 101510 73
2004-07-29 09:24:58 51°14.481 2°27.854 10.3 19 19 101510 73
2004-07-29 09:25:01 51°14.49 2°27.867 10.6 21 19 101510 73
2004-07-29 09:25:08 51°14.511 2°27.899 10.1 17 19 101510 73
2004-07-29 09:25:13 51°14.526 2°27.921 10 19 19 101510 73
2004-07-29 09:25:18 51°14.541 2°27.944 9.9 19 19 101510 73
2004-07-29 09:25:21 51°14.55 2°27.957 10.6 20 19 101520 73
2004-07-29 09:25:28 51°14.572 2°27.988 10.4 20 19 101520 73
2004-07-29 09:25:32 51°14.584 2°28.006 10.2 20 19 101510 73
2004-07-29 09:25:37 51°14.599 2°28.028 10.4 19 19 101510 73
2004-07-29 09:25:41 51°14.612 2°28.045 10.8 20 19 101510 73
2004-07-29 09:25:48 51°14.633 2°28.076 10.5 19 19 101510 73
2004-07-29 09:25:53 51°14.649 2°28.098 10 17 19 101510 73
2004-07-29 09:25:57 51°14.661 2°28.116 10.7 19 19 101510 73
2004-07-29 09:26:01 51°14.673 2°28.133 10.5 18 19 101510 73
2004-07-29 09:26:08 51°14.695 2°28.164 10.6 18 19 101510 73
2004-07-29 09:26:13 51°14.71 2°28.186 10.6 18 19.1 101510 73
2004-07-29 09:26:17 51°14.722 2°28.203 10.2 16 19.1 101510 73
2004-07-29 09:26:22 51°14.738 2°28.226 10.5 19 19.1 101510 74
2004-07-29 09:26:28 51°14.756 2°28.252 10.5 18 19.1 101510 74
2004-07-29 09:26:32 51°14.769 2°28.269 10.3 18 19.1 101510 74
2004-07-29 09:26:38 51°14.787 2°28.296 10.4 16 19.1 101510 74
2004-07-29 09:26:42 51°14.799 2°28.313 10.4 17 19.1 101510 74
2004-07-29 09:26:48 51°14.818 2°28.34 11.2 17 19.1 101510 74
2004-07-29 09:26:53 51°14.833 2°28.361 10.4 16 19.1 101510 74
2004-07-29 09:26:57 51°14.845 2°28.379 11 15 19.1 101510 74
2004-07-29 09:27:02 51°14.861 2°28.401 10.6 16 19.1 101510 75
2004-07-29 09:27:08 51°14.879 2°28.428 10.9 18 19.1 101510 75
2004-07-29 09:27:13 51°14.894 2°28.45 10.4 15 19.1 101520 75
2004-07-29 09:27:18 51°14.909 2°28.472 10.7 16 19.1 101520 75
2004-07-29 09:27:22 51°14.921 2°28.49 10.7 17 19.1 101510 75
2004-07-29 09:27:28 51°14.94 2°28.516 11.2 17 19.1 101510 75
2004-07-29 09:27:33 51°14.955 2°28.538 11 17 19.1 101510 75
2004-07-29 09:27:38 51°14.97 2°28.56 10.8 18 19.1 101510 75
2004-07-29 09:27:42 51°14.983 2°28.577 10.5 17 19.1 101510 75
2004-07-29 09:27:48 51°15.001 2°28.603 10.5 16 19.1 101510 75
2004-07-29 09:27:53 51°15.017 2°28.625 10.7 18 19.1 101510 75
2004-07-29 09:27:58 51°15.032 2°28.647 10.9 18 19.1 101510 75
2004-07-29 09:28:02 51°15.044 2°28.665 11.1 17 19 101520 75
2004-07-29 09:28:08 51°15.062 2°28.691 10.4 17 19 101520 75
2004-07-29 09:28:13 51°15.078 2°28.713 10.9 17 19 101510 75
2004-07-29 09:28:17 51°15.09 2°28.73 10.8 18 19 101510 75
2004-07-29 09:28:21 51°15.102 2°28.748 11 18 19 101510 75
2004-07-29 09:28:28 51°15.122 2°28.779 10.4 16 19 101510 75
2004-07-29 09:28:33 51°15.137 2°28.802 10.4 17 19 101510 75
2004-07-29 09:28:38 51°15.152 2°28.824 10.5 17 19 101510 75
2004-07-29 09:28:41 51°15.161 2°28.837 10.6 18 19 101510 75
2004-07-29 09:28:48 51°15.183 2°28.868 10 16 19 101510 75
2004-07-29 09:28:53 51°15.198 2°28.89 10.9 20 19 101510 75
2004-07-29 09:28:58 51°15.213 2°28.911 10.9 19 19 101510 75
2004-07-29 09:29:01 51°15.222 2°28.924 11 18 19 101510 75
2004-07-29 09:29:08 51°15.244 2°28.954 10.7 20 19 101510 75
2004-07-29 09:29:13 51°15.259 2°28.976 10.8 19 19 101510 75
2004-07-29 09:29:18 51°15.275 2°28.997 10.5 20 19 101510 75
2004-07-29 09:29:21 51°15.284 2°29.01 10.8 18 19 101510 75
2004-07-29 09:29:28 51°15.305 2°29.041 10.7 17 19 101510 75
2004-07-29 09:29:32 51°15.317 2°29.059 10.7 19 19 101510 75
2004-07-29 09:29:38 51°15.335 2°29.085 10.6 18 19 101510 75
2004-07-29 09:29:42 51°15.347 2°29.103 10.5 19 19 101510 75
2004-07-29 09:29:48 51°15.364 2°29.13 10.8 19 19 101510 75
2004-07-29 09:29:53 51°15.379 2°29.152 10.5 18 19 101510 75
2004-07-29 09:29:57 51°15.391 2°29.17 10.5 19 19 101510 75
2004-07-29 09:30:01 51°15.403 2°29.188 10.6 19 19 101510 75
2004-07-29 09:30:08 51°15.424 2°29.218 10.5 21 19 101510 75
2004-07-29 09:30:13 51°15.439 2°29.24 10.5 18 19 101510 75
2004-07-29 09:30:17 51°15.452 2°29.257 10.2 18 19 101510 75
2004-07-29 09:30:21 51°15.464 2°29.274 10.4 18 18.9 101510 75
2004-07-29 09:30:28 51°15.485 2°29.304 10.4 17 18.9 101510 75
2004-07-29 09:30:33 51°15.5 2°29.327 11 17 19 101510 74
2004-07-29 09:30:37 51°15.512 2°29.344 10.7 19 19 101510 74
2004-07-29 09:30:41 51°15.524 2°29.362 10.6 16 19 101510 75
2004-07-29 09:30:48 51°15.545 2°29.393 10.3 16 19 101510 75
2004-07-29 09:30:53 51°15.56 2°29.415 10.6 17 19 101510 75
2004-07-29 09:30:57 51°15.572 2°29.433 11.5 20 19 101510 75
2004-07-29 09:31:01 51°15.584 2°29.45 10.5 16 19 101510 75
2004-07-29 09:31:08 51°15.605 2°29.481 11.1 19 19 101510 75
2004-07-29 09:31:13 51°15.62 2°29.502 10.4 20 19 101510 75
2004-07-29 09:31:18 51°15.635 2°29.524 10.7 18 19 101510 75
2004-07-29 09:31:21 51°15.645 2°29.537 10.7 18 18.9 101510 74
2004-07-29 09:31:28 51°15.666 2°29.568 10.7 19 18.9 101510 74
2004-07-29 09:31:33 51°15.681 2°29.589 10.8 17 19 101510 74
2004-07-29 09:31:38 51°15.696 2°29.611 10.9 18 19 101510 74
2004-07-29 09:31:41 51°15.705 2°29.624 10.6 17 19 101510 75
2004-07-29 09:31:48 51°15.727 2°29.654 10.5 17 19 101510 75
2004-07-29 09:31:52 51°15.739 2°29.672 10.4 18 19 101510 75
2004-07-29 09:31:57 51°15.754 2°29.693 10.8 19 19 101510 75
2004-07-29 09:32:01 51°15.767 2°29.71 10.4 19 19 101520 75
2004-07-29 09:32:07 51°15.786 2°29.736 10.8 18 19 101520 75
2004-07-29 09:32:12 51°15.801 2°29.757 10.4 17 19 101510 75
2004-07-29 09:32:17 51°15.817 2°29.778 10.7 17 19 101510 75
2004-07-29 09:32:21 51°15.829 2°29.795 10.4 20 19 101510 75
2004-07-29 09:32:28 51°15.851 2°29.825 10.5 18 19 101510 75
2004-07-29 09:32:33 51°15.866 2°29.847 10.9 17 19 101510 75
2004-07-29 09:32:38 51°15.881 2°29.868 11.1 18 19 101510 75
2004-07-29 09:32:41 51°15.89 2°29.882 11 18 19 101510 75
2004-07-29 09:32:48 51°15.912 2°29.912 10.8 17 19 101510 75
2004-07-29 09:32:53 51°15.927 2°29.934 11.1 19 19 101510 75
2004-07-29 09:32:58 51°15.942 2°29.956 10 18 19 101510 75
2004-07-29 09:33:01 51°15.951 2°29.969 10.7 19 19 101510 75
2004-07-29 09:33:08 51°15.972 2°29.999 10.4 20 19 101510 75
2004-07-29 09:33:13 51°15.987 2°30.021 10.6 20 19 101510 75
2004-07-29 09:33:18 51°16.002 2°30.043 10.6 20 19 101510 75
2004-07-29 09:33:21 51°16.011 2°30.056 11 19 19 101510 75
2004-07-29 09:33:28 51°16.032 2°30.087 10.3 20 19 101510 75
2004-07-29 09:33:33 51°16.047 2°30.109 10.4 19 19 101510 75
2004-07-29 09:33:37 51°16.059 2°30.127 10.3 18 19 101510 75
2004-07-29 09:33:42 51°16.074 2°30.149 10.6 19 19 101510 74
2004-07-29 09:33:48 51°16.092 2°30.175 10.1 17 19 101510 74
2004-07-29 09:33:53 51°16.107 2°30.198 10.2 18 19 101510 74
2004-07-29 09:33:58 51°16.122 2°30.219 10.7 20 19 101510 74
2004-07-29 09:34:02 51°16.135 2°30.237 10.6 19 19 101510 74
2004-07-29 09:34:08 51°16.153 2°30.263 10.6 18 19 101510 74
2004-07-29 09:34:13 51°16.168 2°30.284 10.7 19 19 101510 74
2004-07-29 09:34:18 51°16.184 2°30.306 10.3 18 19 101510 74
2004-07-29 09:34:22 51°16.196 2°30.323 9.9 19 19 101510 74
2004-07-29 09:34:28 51°16.214 2°30.349 10.8 19 19 101510 74
2004-07-29 09:34:33 51°16.229 2°30.371 10.7 18 19 101510 74
2004-07-29 09:34:37 51°16.241 2°30.388 10.9 19 19 101510 74
2004-07-29 09:34:42 51°16.256 2°30.41 10.8 19 19 101510 74
2004-07-29 09:34:48 51°16.275 2°30.435 10.5 19 19 101510 74
2004-07-29 09:34:52 51°16.287 2°30.453 10.3 18 19 101510 74
2004-07-29 09:34:58 51°16.306 2°30.478 10.8 19 19 101510 74
2004-07-29 09:35:02 51°16.318 2°30.496 10.6 19 19 101520 74
2004-07-29 09:35:08 51°16.336 2°30.522 10.1 19 19 101520 74
2004-07-29 09:35:13 51°16.351 2°30.544 10.6 19 19 101510 74
2004-07-29 09:35:17 51°16.363 2°30.561 11 18 19 101510 74
2004-07-29 09:35:22 51°16.379 2°30.583 10.9 20 19 101510 74
2004-07-29 09:35:28 51°16.397 2°30.609 10.5 18 19 101510 74
2004-07-29 09:35:33 51°16.412 2°30.63 10.1 19 19 101510 74
2004-07-29 09:35:38 51°16.428 2°30.652 10.9 19 19 101510 74
2004-07-29 09:35:42 51°16.44 2°30.67 10.7 17 19.1 101510 74
2004-07-29 09:35:48 51°16.457 2°30.697 10.5 19 19.1 101510 74
2004-07-29 09:35:53 51°16.473 2°30.719 10.2 20 19.1 101510 74
2004-07-29 09:35:58 51°16.488 2°30.74 10.3 17 19.1 101510 74
2004-07-29 09:36:00 51°16.494 2°30.749 10.6 17 19.1 101510 74
2004-07-29 09:36:08 51°16.519 2°30.783 10.6 20 19.1 101510 74
2004-07-29 09:36:13 51°16.535 2°30.803 10.1 20 19 101510 74
2004-07-29 09:36:18 51°16.55 2°30.824 10.2 18 19 101510 74
2004-07-29 09:36:21 51°16.56 2°30.837 10.7 18 19.1 101510 74
2004-07-29 09:36:28 51°16.581 2°30.867 10.4 20 19.1 101510 74
2004-07-29 09:36:33 51°16.597 2°30.888 10.8 20 19.1 101510 74
2004-07-29 09:36:38 51°16.612 2°30.91 9.7 16 19.1 101510 74
2004-07-29 09:36:42 51°16.624 2°30.927 10.8 20 19.1 101510 74
2004-07-29 09:36:48 51°16.642 2°30.954 10.6 20 19.1 101510 74
2004-07-29 09:36:53 51°16.657 2°30.975 10.6 20 19.1 101510 74
2004-07-29 09:36:57 51°16.67 2°30.992 10.6 20 19.1 101510 74
2004-07-29 09:37:01 51°16.682 2°31.009 10.1 19 19.1 101510 74
2004-07-29 09:37:08 51°16.704 2°31.039 10.1 18 19.1 101510 74
2004-07-29 09:37:13 51°16.719 2°31.061 9.9 21 19.1 101510 74
2004-07-29 09:37:18 51°16.735 2°31.082 10 19 19.1 101510 74
2004-07-29 09:37:21 51°16.744 2°31.095 9.9 20 19.1 101510 74
2004-07-29 09:37:28 51°16.765 2°31.125 10.3 20 19.1 101510 74
2004-07-29 09:37:33 51°16.78 2°31.146 10.2 21 19.1 101510 74
2004-07-29 09:37:38 51°16.795 2°31.168 10.4 19 19.1 101510 74
2004-07-29 09:37:41 51°16.804 2°31.181 10 18 19.1 101510 74
2004-07-29 09:37:48 51°16.826 2°31.211 10.6 17 19.1 101510 74
2004-07-29 09:37:53 51°16.841 2°31.233 10.7 18 19.2 101520 74
2004-07-29 09:37:57 51°16.853 2°31.251 10.3 20 19.2 101520 74
2004-07-29 09:38:01 51°16.865 2°31.268 10.8 20 19.1 101510 75
2004-07-29 09:38:08 51°16.887 2°31.299 9.9 19 19.1 101510 75
2004-07-29 09:38:12 51°16.899 2°31.316 10.1 18 19.2 101510 75
2004-07-29 09:38:17 51°16.914 2°31.337 10.4 19 19.2 101510 75
2004-07-29 09:38:21 51°16.927 2°31.354 10.1 17 19.2 101510 75
2004-07-29 09:38:28 51°16.949 2°31.384 10.6 20 19.2 101510 75
2004-07-29 09:38:33 51°16.964 2°31.405 10.2 18 19.2 101510 75
2004-07-29 09:38:37 51°16.977 2°31.422 10.3 16 19.2 101510 75
2004-07-29 09:38:42 51°16.992 2°31.443 9.9 17 19.2 101510 75
2004-07-29 09:38:48 51°17.011 2°31.469 10.8 15 19.2 101510 75
2004-07-29 09:38:52 51°17.023 2°31.487 10.5 17 19.2 101510 75
2004-07-29 09:38:58 51°17.041 2°31.513 10.4 16 19.2 101510 75
2004-07-29 09:39:02 51°17.053 2°31.53 10.6 19 19.2 101520 75
2004-07-29 09:39:08 51°17.071 2°31.557 10.9 18 19.2 101520 75
2004-07-29 09:39:13 51°17.086 2°31.579 10.7 17 19.2 101520 75
2004-07-29 09:39:17 51°17.098 2°31.596 10.6 19 19.2 101520 75
2004-07-29 09:39:22 51°17.114 2°31.618 10.3 18 19.2 101510 75
2004-07-29 09:39:28 51°17.132 2°31.644 11.1 18 19.2 101510 75
2004-07-29 09:39:33 51°17.148 2°31.665 10.6 18 19.2 101510 75
2004-07-29 09:39:38 51°17.163 2°31.686 10.1 16 19.2 101510 75
2004-07-29 09:39:42 51°17.175 2°31.703 11.2 17 19.1 101510 74
2004-07-29 09:39:48 51°17.193 2°31.729 10.8 18 19.1 101510 74
2004-07-29 09:39:53 51°17.208 2°31.752 10.6 17 19.1 101520 75
2004-07-29 09:39:58 51°17.223 2°31.775 11.1 18 19.1 101520 75
2004-07-29 09:40:00 51°17.228 2°31.784 11.1 17 19.1 101520 75
2004-07-29 09:40:08 51°17.251 2°31.821 10.5 15 19.1 101520 75
2004-07-29 09:40:13 51°17.265 2°31.845 10.5 16 19.1 101510 74
2004-07-29 09:40:17 51°17.276 2°31.864 11 16 19.1 101510 74
2004-07-29 09:40:22 51°17.29 2°31.888 10.7 16 19.1 101520 74
2004-07-29 09:40:28 51°17.306 2°31.917 10.9 17 19.1 101520 74
2004-07-29 09:40:33 51°17.32 2°31.94 10.8 17 19.1 101510 74
2004-07-29 09:40:38 51°17.335 2°31.963 10.6 18 19.1 101510 74
2004-07-29 09:40:41 51°17.344 2°31.976 10.7 17 19.1 101510 74
2004-07-29 09:40:48 51°17.365 2°32.007 9.9 17 19.1 101510 74
2004-07-29 09:40:53 51°17.38 2°32.029 10.3 17 19.1 101510 75
2004-07-29 09:40:58 51°17.396 2°32.05 11 17 19.1 101510 75
2004-07-29 09:41:01 51°17.405 2°32.063 10.8 16 19.1 101510 75
2004-07-29 09:41:08 51°17.427 2°32.093 10.6 17 19.1 101510 75
2004-07-29 09:41:13 51°17.443 2°32.114 10.8 18 19.1 101510 75
2004-07-29 09:41:18 51°17.458 2°32.135 10.4 15 19.1 101510 75
2004-07-29 09:41:22 51°17.471 2°32.153 11 16 19.1 101510 75
2004-07-29 09:41:28 51°17.489 2°32.179 10.9 14 19.1 101510 75
2004-07-29 09:41:33 51°17.504 2°32.2 10.5 17 19.1 101510 75
2004-07-29 09:41:37 51°17.517 2°32.218 10.3 17 19.1 101510 75
2004-07-29 09:41:41 51°17.529 2°32.235 10.2 17 19.1 101510 75
2004-07-29 09:41:48 51°17.551 2°32.265 10.8 15 19.1 101510 75
2004-07-29 09:41:53 51°17.566 2°32.286 10.9 15 19.1 101510 75
2004-07-29 09:41:58 51°17.582 2°32.307 10.5 14 19.1 101510 75
2004-07-29 09:42:01 51°17.591 2°32.32 11.1 14 19.1 101510 75
2004-07-29 09:42:08 51°17.613 2°32.35 11.1 15 19.1 101510 75
2004-07-29 09:42:13 51°17.628 2°32.372 10.2 15 19.1 101510 75
2004-07-29 09:42:18 51°17.644 2°32.393 10.8 15 19.1 101510 75
2004-07-29 09:42:21 51°17.653 2°32.406 10.8 16 19.1 101510 75
2004-07-29 09:42:28 51°17.674 2°32.436 11.1 15 19.1 101510 75
2004-07-29 09:42:33 51°17.69 2°32.457 10.5 12 19.1 101510 75
2004-07-29 09:42:38 51°17.705 2°32.479 10.7 15 19.1 101510 75
2004-07-29 09:42:41 51°17.714 2°32.492 10.5 14 19.1 101510 75
2004-07-29 09:42:48 51°17.735 2°32.522 11 14 19.1 101510 75
2004-07-29 09:42:53 51°17.75 2°32.544 10.6 14 19.2 101510 75
2004-07-29 09:42:58 51°17.766 2°32.566 10.8 16 19.2 101510 75
2004-07-29 09:43:02 51°17.778 2°32.583 10.9 15 19.1 101510 75
2004-07-29 09:43:08 51°17.796 2°32.61 10.5 15 19.1 101510 75
2004-07-29 09:43:13 51°17.811 2°32.631 10.5 16 19.1 101510 75
2004-07-29 09:43:17 51°17.823 2°32.648 11 17 19.1 101510 75
2004-07-29 09:43:21 51°17.836 2°32.665 11.1 18 19.1 101510 75
2004-07-29 09:43:28 51°17.857 2°32.695 11 18 19.1 101510 75
2004-07-29 09:43:33 51°17.873 2°32.717 10.7 18 19.1 101510 75
2004-07-29 09:43:38 51°17.888 2°32.738 10.6 17 19.1 101510 75
2004-07-29 09:43:41 51°17.898 2°32.751 10.6 19 19.1 101510 75
2004-07-29 09:43:48 51°17.919 2°32.78 10.2 18 19.1 101510 75
2004-07-29 09:43:53 51°17.935 2°32.801 10.5 19 19.2 101510 74
2004-07-29 09:43:58 51°17.95 2°32.822 10.8 19 19.2 101510 74
2004-07-29 09:44:01 51°17.96 2°32.835 10.4 18 19.2 101510 75
2004-07-29 09:44:08 51°17.981 2°32.865 11.1 17 19.2 101510 75
2004-07-29 09:44:13 51°17.997 2°32.886 11.1 18 19.2 101510 75
2004-07-29 09:44:18 51°18.012 2°32.908 10.9 17 19.2 101510 75
2004-07-29 09:44:21 51°18.021 2°32.921 10.7 19 19.2 101510 75
2004-07-29 09:44:28 51°18.042 2°32.951 10.7 17 19.2 101510 75
2004-07-29 09:44:33 51°18.057 2°32.973 10.9 19 19.1 101510 74
2004-07-29 09:44:38 51°18.072 2°32.994 10.4 18 19.1 101510 74
2004-07-29 09:44:42 51°18.085 2°33.012 10.7 18 19.2 101510 74
2004-07-29 09:44:48 51°18.103 2°33.038 10.5 16 19.2 101510 74
2004-07-29 09:44:53 51°18.118 2°33.059 10.4 16 19.2 101510 74
2004-07-29 09:44:57 51°18.13 2°33.077 10.4 16 19.2 101510 74
2004-07-29 09:45:01 51°18.143 2°33.094 10.7 20 19.2 101510 74
2004-07-29 09:45:08 51°18.164 2°33.123 10.2 19 19.2 101510 74
2004-07-29 09:45:13 51°18.18 2°33.144 11.1 20 19.2 101510 74
2004-07-29 09:45:18 51°18.195 2°33.165 10.6 17 19.2 101510 74
2004-07-29 09:45:21 51°18.205 2°33.178 10.6 19 19.2 101510 74
2004-07-29 09:45:28 51°18.226 2°33.208 10.8 18 19.2 101510 74
2004-07-29 09:45:33 51°18.242 2°33.229 11.1 19 19.2 101510 74
2004-07-29 09:45:38 51°18.257 2°33.251 10.8 17 19.2 101510 74
2004-07-29 09:45:41 51°18.266 2°33.264 10.6 16 19.2 101510 74
2004-07-29 09:45:48 51°18.287 2°33.294 11 18 19.2 101510 74
2004-07-29 09:45:53 51°18.302 2°33.316 10.8 18 19.2 101510 74
2004-07-29 09:45:58 51°18.317 2°33.337 10.1 18 19.2 101510 74
2004-07-29 09:46:01 51°18.326 2°33.35 10.9 19 19.2 101510 74
2004-07-29 09:46:08 51°18.347 2°33.38 10.6 19 19.2 101510 74
2004-07-29 09:46:13 51°18.362 2°33.402 10.6 18 19.2 101510 74
2004-07-29 09:46:18 51°18.377 2°33.423 10.4 17 19.2 101510 74
2004-07-29 09:46:22 51°18.389 2°33.439 10.4 19 19.2 101510 74
2004-07-29 09:46:28 51°18.408 2°33.464 10.5 21 19.2 101510 74
2004-07-29 09:46:33 51°18.423 2°33.485 10.9 19 19.2 101510 74
2004-07-29 09:46:37 51°18.435 2°33.502 10.7 19 19.2 101510 74
2004-07-29 09:46:41 51°18.447 2°33.519 10.8 19 19.2 101510 74
2004-07-29 09:46:48 51°18.469 2°33.549 10.2 20 19.2 101510 74
2004-07-29 09:46:53 51°18.484 2°33.57 10.6 19 19.2 101510 74
2004-07-29 09:46:58 51°18.5 2°33.591 11.3 20 19.2 101510 74
2004-07-29 09:47:01 51°18.509 2°33.604 11.2 19 19.2 101510 74
2004-07-29 09:47:08 51°18.53 2°33.633 10.8 20 19.2 101510 74
2004-07-29 09:47:13 51°18.546 2°33.655 10.8 20 19.2 101510 74
2004-07-29 09:47:18 51°18.561 2°33.677 10.4 21 19.2 101510 74
2004-07-29 09:47:21 51°18.57 2°33.69 10.8 19 19.2 101510 73
2004-07-29 09:47:28 51°18.592 2°33.719 10.9 19 19.2 101510 73
2004-07-29 09:47:33 51°18.608 2°33.741 10.7 20 19.2 101510 73
2004-07-29 09:47:38 51°18.623 2°33.762 10.9 20 19.2 101510 73
2004-07-29 09:47:41 51°18.633 2°33.775 11.1 20 19.2 101510 74
2004-07-29 09:47:48 51°18.654 2°33.805 11.1 21 19.2 101510 74
2004-07-29 09:47:53 51°18.669 2°33.828 10.9 21 19.3 101510 74
2004-07-29 09:47:58 51°18.684 2°33.85 10.9 21 19.3 101510 74
2004-07-29 09:48:02 51°18.696 2°33.867 10.8 21 19.3 101510 74
2004-07-29 09:48:08 51°18.714 2°33.894 11.4 21 19.3 101510 74
2004-07-29 09:48:13 51°18.729 2°33.916 11.2 22 19.3 101510 73
2004-07-29 09:48:17 51°18.741 2°33.934 10.8 22 19.3 101510 73
2004-07-29 09:48:21 51°18.754 2°33.951 10.6 20 19.3 101510 74
2004-07-29 09:48:28 51°18.776 2°33.981 11.6 21 19.3 101510 74
2004-07-29 09:48:33 51°18.791 2°34.003 11.1 21 19.3 101510 74
2004-07-29 09:48:38 51°18.806 2°34.025 11.2 22 19.3 101510 74
2004-07-29 09:48:41 51°18.815 2°34.038 11 20 19.3 101510 74
2004-07-29 09:48:48 51°18.836 2°34.069 11.3 20 19.3 101510 74
2004-07-29 09:48:53 51°18.851 2°34.091 11.3 21 19.3 101510 74
2004-07-29 09:48:58 51°18.867 2°34.114 10.9 22 19.3 101510 74
2004-07-29 09:49:01 51°18.876 2°34.127 11 20 19.3 101510 73
2004-07-29 09:49:08 51°18.897 2°34.158 10.7 20 19.3 101510 73
2004-07-29 09:49:13 51°18.912 2°34.18 10.9 21 19.3 101510 74
2004-07-29 09:49:18 51°18.928 2°34.202 11.2 22 19.3 101510 74
2004-07-29 09:49:21 51°18.937 2°34.215 11.6 21 19.3 101510 74
2004-07-29 09:49:28 51°18.958 2°34.246 11.4 20 19.3 101510 74
2004-07-29 09:49:33 51°18.972 2°34.269 11.3 18 19.4 101510 74
2004-07-29 09:49:38 51°18.987 2°34.292 11.3 21 19.4 101510 74
2004-07-29 09:49:42 51°18.999 2°34.31 11.2 21 19.4 101510 74
2004-07-29 09:49:48 51°19.016 2°34.337 11.3 20 19.4 101510 74
2004-07-29 09:49:53 51°19.031 2°34.36 10.6 21 19.4 101510 74
2004-07-29 09:49:57 51°19.043 2°34.378 11.6 18 19.4 101510 74
2004-07-29 09:50:01 51°19.054 2°34.397 11.1 20 19.4 101500 74
2004-07-29 09:50:08 51°19.075 2°34.428 11 21 19.4 101500 74
2004-07-29 09:50:13 51°19.09 2°34.451 11 21 19.4 101510 74
2004-07-29 09:50:16 51°19.099 2°34.465 10.9 20 19.4 101510 74
2004-07-29 09:50:21 51°19.114 2°34.488 11.1 19 19.3 101510 74
2004-07-29 09:50:28 51°19.134 2°34.519 10.8 21 19.3 101510 74
2004-07-29 09:50:33 51°19.149 2°34.542 11.3 19 19.4 101510 74
2004-07-29 09:50:38 51°19.164 2°34.565 10.9 21 19.4 101510 74
2004-07-29 09:50:41 51°19.173 2°34.579 11.4 20 19.4 101510 74
2004-07-29 09:50:48 51°19.194 2°34.61 11.1 22 19.4 101510 74
2004-07-29 09:50:53 51°19.208 2°34.633 10.9 22 19.4 101500 74
2004-07-29 09:50:58 51°19.223 2°34.656 10.9 23 19.4 101500 74
2004-07-29 09:51:01 51°19.232 2°34.669 10.8 23 19.4 101510 74
2004-07-29 09:51:08 51°19.253 2°34.701 11.1 22 19.4 101510 74
2004-07-29 09:51:13 51°19.267 2°34.724 11 23 19.4 101510 74
2004-07-29 09:51:18 51°19.282 2°34.747 10.9 24 19.4 101510 74
2004-07-29 09:51:22 51°19.294 2°34.765 11.6 23 19.4 101510 74
2004-07-29 09:51:28 51°19.311 2°34.792 10.8 24 19.4 101510 74
2004-07-29 09:51:33 51°19.326 2°34.815 10.8 24 19.4 101510 74
2004-07-29 09:51:37 51°19.338 2°34.834 11.2 25 19.4 101510 74
2004-07-29 09:51:41 51°19.349 2°34.852 10.8 26 19.4 101510 74
2004-07-29 09:51:48 51°19.37 2°34.885 11.2 25 19.4 101510 74
2004-07-29 09:51:53 51°19.384 2°34.908 10.9 24 19.4 101500 74
2004-07-29 09:51:58 51°19.399 2°34.931 11.4 25 19.4 101500 74
2004-07-29 09:52:01 51°19.407 2°34.945 10.4 23 19.4 101510 74
2004-07-29 09:52:08 51°19.427 2°34.978 11.2 25 19.4 101510 74
2004-07-29 09:52:13 51°19.441 2°35.003 10.9 22 19.4 101500 74
2004-07-29 09:52:18 51°19.454 2°35.028 11.5 22 19.4 101500 74
2004-07-29 09:52:21 51°19.462 2°35.043 11.7 21 19.4 101510 74
2004-07-29 09:52:28 51°19.48 2°35.078 11.1 19 19.4 101510 74
2004-07-29 09:52:33 51°19.492 2°35.104 10.5 18 19.4 101500 74
2004-07-29 09:52:38 51°19.504 2°35.131 11.5 20 19.4 101500 74
2004-07-29 09:52:41 51°19.511 2°35.147 11.2 19 19.4 101510 74
2004-07-29 09:52:48 51°19.527 2°35.185 11.9 19 19.4 101510 74
2004-07-29 09:52:53 51°19.539 2°35.212 11.1 18 19.4 101510 74
2004-07-29 09:52:57 51°19.548 2°35.234 11.1 18 19.4 101510 74
2004-07-29 09:53:02 51°19.56 2°35.262 11.6 19 19.4 101510 75
2004-07-29 09:53:08 51°19.573 2°35.295 10.9 16 19.4 101510 75
2004-07-29 09:53:13 51°19.584 2°35.323 10.8 17 19.4 101510 75
2004-07-29 09:53:18 51°19.594 2°35.351 10.7 16 19.4 101510 75
2004-07-29 09:53:22 51°19.602 2°35.374 11.4 15 19.4 101510 75
2004-07-29 09:53:28 51°19.614 2°35.408 11.1 14 19.4 101510 75
2004-07-29 09:53:33 51°19.625 2°35.437 11.3 12 19.4 101510 75
2004-07-29 09:53:38 51°19.635 2°35.465 11.2 12 19.4 101510 75
2004-07-29 09:53:42 51°19.643 2°35.488 11.5 13 19.4 101510 75
2004-07-29 09:53:48 51°19.655 2°35.523 11.4 13 19.4 101510 75
2004-07-29 09:53:53 51°19.665 2°35.552 10.7 10 19.4 101510 75
2004-07-29 09:53:57 51°19.672 2°35.575 11.5 10 19.4 101510 75
2004-07-29 09:54:02 51°19.682 2°35.604 11.3 10 19.4 101510 75
2004-07-29 09:54:08 51°19.693 2°35.639 10.8 9 19.4 101510 75
2004-07-29 09:54:13 51°19.703 2°35.669 11.3 8 19.4 101510 75
2004-07-29 09:54:18 51°19.712 2°35.698 11.1 10 19.4 101510 75
2004-07-29 09:54:21 51°19.717 2°35.716 11.3 9 19.4 101510 75
2004-07-29 09:54:28 51°19.73 2°35.757 11.2 10 19.4 101510 75
2004-07-29 09:54:33 51°19.739 2°35.787 11.6 11 19.4 101510 76
2004-07-29 09:54:38 51°19.748 2°35.816 11.8 12 19.4 101510 76
2004-07-29 09:54:41 51°19.753 2°35.834 11.3 8 19.4 101510 76
2004-07-29 09:54:48 51°19.766 2°35.875 11.8 11 19.4 101510 76
2004-07-29 09:54:53 51°19.775 2°35.904 11.1 10 19.3 101510 76
2004-07-29 09:54:57 51°19.782 2°35.928 10.9 11 19.3 101510 76
2004-07-29 09:55:02 51°19.79 2°35.958 11.4 13 19.3 101510 76
2004-07-29 09:55:08 51°19.8 2°35.993 11.5 13 19.3 101510 76
2004-07-29 09:55:13 51°19.81 2°36.022 11 12 19.3 101510 76
2004-07-29 09:55:17 51°19.817 2°36.045 11.3 12 19.3 101510 76
2004-07-29 09:55:22 51°19.827 2°36.074 12.1 11 19.3 101510 76
2004-07-29 09:55:28 51°19.838 2°36.109 11.3 12 19.3 101510 76
2004-07-29 09:55:32 51°19.846 2°36.132 11.8 11 19.3 101510 76
2004-07-29 09:55:38 51°19.858 2°36.167 11.5 10 19.3 101510 76
2004-07-29 09:55:42 51°19.866 2°36.19 11.4 10 19.3 101510 76
2004-07-29 09:55:48 51°19.877 2°36.225 10.8 10 19.3 101510 76
2004-07-29 09:55:53 51°19.886 2°36.254 11.3 9 19.3 101510 76
2004-07-29 09:55:57 51°19.894 2°36.277 11.2 10 19.3 101510 76
2004-07-29 09:56:02 51°19.904 2°36.306 10.9 9 19.3 101510 76
2004-07-29 09:56:08 51°19.915 2°36.341 11.9 11 19.3 101510 76
2004-07-29 09:56:13 51°19.925 2°36.37 11.6 10 19.3 101510 76
2004-07-29 09:56:18 51°19.934 2°36.399 11 11 19.3 101510 76
2004-07-29 09:56:22 51°19.941 2°36.423 10.8 9 19.3 101510 75
2004-07-29 09:56:28 51°19.951 2°36.458 10.5 8 19.3 101510 75
2004-07-29 09:56:33 51°19.96 2°36.487 10.4 8 19.3 101510 76
2004-07-29 09:56:38 51°19.969 2°36.517 11.2 8 19.3 101510 76
2004-07-29 09:56:42 51°19.976 2°36.541 11.3 8 19.3 101510 76
2004-07-29 09:56:48 51°19.986 2°36.576 11.3 10 19.3 101510 76
2004-07-29 09:56:53 51°19.995 2°36.606 11.6 12 19.3 101510 76
2004-07-29 09:56:58 51°20.004 2°36.635 11.4 10 19.3 101510 76
2004-07-29 09:57:01 51°20.009 2°36.653 11 11 19.3 101510 76
2004-07-29 09:57:08 51°20.022 2°36.694 10.9 11 19.3 101510 76
2004-07-29 09:57:13 51°20.031 2°36.723 11.3 11 19.3 101510 76
2004-07-29 09:57:18 51°20.04 2°36.753 11.3 8 19.3 101510 76
2004-07-29 09:57:21 51°20.045 2°36.771 11.7 9 19.3 101510 76
2004-07-29 09:57:28 51°20.058 2°36.812 11.8 9 19.3 101510 76
2004-07-29 09:57:33 51°20.067 2°36.841 11.6 12 19.3 101510 76
2004-07-29 09:57:38 51°20.075 2°36.871 11.4 11 19.3 101510 76
2004-07-29 09:57:42 51°20.082 2°36.894 11.6 11 19.3 101510 76
2004-07-29 09:57:48 51°20.093 2°36.93 11.4 12 19.3 101510 76
2004-07-29 09:57:53 51°20.101 2°36.96 10.8 11 19.3 101510 76
2004-07-29 09:57:58 51°20.11 2°36.989 11.6 10 19.3 101510 76
2004-07-29 09:58:02 51°20.117 2°37.013 11.2 10 19.2 101510 76
2004-07-29 09:58:08 51°20.127 2°37.049 11.5 10 19.2 101510 76
2004-07-29 09:58:13 51°20.136 2°37.078 11.3 11 19.2 101510 75
2004-07-29 09:58:15 51°20.14 2°37.09 11.2 11 19.2 101510 75
2004-07-29 09:58:25 51°20.158 2°37.149 10.9 12 19.2 101510 75
2004-07-29 09:58:32 51°20.171 2°37.19 11.7 11 19.2 101510 75
2004-07-29 09:58:36 51°20.178 2°37.214 11.7 12 19.2 101510 75
2004-07-29 09:58:42 51°20.189 2°37.249 10.9 11 19.3 101510 75
2004-07-29 09:58:47 51°20.197 2°37.278 11 10 19.3 101510 75
2004-07-29 09:58:52 51°20.206 2°37.308 11.8 11 19.3 101510 76
2004-07-29 09:58:57 51°20.215 2°37.338 11 12 19.3 101510 76
2004-07-29 09:59:02 51°20.224 2°37.368 10.5 9 19.3 101510 76
2004-07-29 09:59:07 51°20.232 2°37.397 11.4 9 19.3 101510 76
2004-07-29 09:59:12 51°20.241 2°37.427 11.4 9 19.3 101510 76
2004-07-29 09:59:17 51°20.25 2°37.456 11.2 9 19.3 101510 76
2004-07-29 09:59:20 51°20.256 2°37.474 11.5 10 19.3 101510 76
2004-07-29 09:59:24 51°20.263 2°37.497 11 10 19.3 101510 76
2004-07-29 09:59:32 51°20.278 2°37.544 11.6 9 19.3 101510 76
2004-07-29 09:59:37 51°20.287 2°37.574 11 10 19.3 101510 76
2004-07-29 09:59:42 51°20.296 2°37.603 11.5 8 19.3 101510 76
2004-07-29 09:59:47 51°20.305 2°37.633 11.4 11 19.3 101510 76
2004-07-29 09:59:52 51°20.314 2°37.662 11.7 11 19.3 101510 76
2004-07-29 09:59:56 51°20.322 2°37.686 11.3 8 19.3 101510 76
2004-07-29 10:00:02 51°20.333 2°37.721 10.7 9 19.3 101510 76
2004-07-29 10:00:07 51°20.342 2°37.75 11.4 8 19.3 101510 76
2004-07-29 10:00:12 51°20.351 2°37.78 11.2 10 19.3 101510 76
2004-07-29 10:00:17 51°20.36 2°37.809 10.9 11 19.3 101510 76
2004-07-29 10:00:21 51°20.367 2°37.833 11.5 10 19.3 101510 76
2004-07-29 10:00:26 51°20.377 2°37.863 11.1 10 19.3 101510 76
2004-07-29 10:00:32 51°20.387 2°37.899 11.2 11 19.3 101510 76
2004-07-29 10:00:37 51°20.397 2°37.928 10.8 10 19.3 101510 76
2004-07-29 10:00:42 51°20.406 2°37.958 10.5 9 19.3 101510 76
2004-07-29 10:00:47 51°20.414 2°37.987 10.9 9 19.3 101510 76
2004-07-29 10:00:52 51°20.423 2°38.017 11.1 9 19.3 101510 76
2004-07-29 10:00:57 51°20.431 2°38.048 10.6 10 19.3 101510 76
2004-07-29 10:01:02 51°20.439 2°38.078 10.3 8 19.3 101510 76
2004-07-29 10:01:07 51°20.447 2°38.108 10.6 9 19.3 101510 76
2004-07-29 10:01:12 51°20.455 2°38.138 10.7 7 19.3 101510 77
2004-07-29 10:01:17 51°20.463 2°38.168 11.1 9 19.3 101510 77
2004-07-29 10:01:22 51°20.471 2°38.198 10.7 9 19.3 101510 77
2004-07-29 10:01:26 51°20.477 2°38.222 10.8 10 19.3 101510 77
2004-07-29 10:01:32 51°20.486 2°38.259 11.1 9 19.3 101520 77
2004-07-29 10:01:37 51°20.494 2°38.289 11.5 8 19.3 101520 77
2004-07-29 10:01:42 51°20.502 2°38.319 10.4 8 19.3 101510 77
2004-07-29 10:01:45 51°20.506 2°38.337 11.2 9 19.3 101510 77
2004-07-29 10:01:52 51°20.517 2°38.379 10.8 7 19.3 101510 77
2004-07-29 10:01:57 51°20.525 2°38.409 11.5 11 19.3 101510 77
2004-07-29 10:02:02 51°20.534 2°38.439 11.3 8 19.3 101510 77
2004-07-29 10:02:07 51°20.542 2°38.469 11.1 10 19.3 101510 77
2004-07-29 10:02:11 51°20.548 2°38.493 10.9 9 19.3 101510 77
2004-07-29 10:02:17 51°20.558 2°38.529 10.8 9 19.3 101510 77
2004-07-29 10:02:21 51°20.565 2°38.553 10.9 9 19.3 101510 77
2004-07-29 10:02:26 51°20.573 2°38.583 11.9 7 19.3 101510 77
2004-07-29 10:02:32 51°20.582 2°38.62 11.2 8 19.3 101510 77
2004-07-29 10:02:36 51°20.588 2°38.644 11.5 10 19.3 101510 77
2004-07-29 10:02:42 51°20.598 2°38.68 11.7 10 19.3 101510 77
2004-07-29 10:02:45 51°20.603 2°38.698 11.1 10 19.3 101510 77
2004-07-29 10:02:52 51°20.614 2°38.74 11.7 8 19.3 101510 77
2004-07-29 10:02:54 51°20.617 2°38.752 11.1 8 19.3 101510 77
2004-07-29 10:03:05 51°20.634 2°38.818 11.5 9 19.3 101510 77
2004-07-29 10:03:12 51°20.645 2°38.86 11.9 10 19.3 101510 77
2004-07-29 10:03:17 51°20.653 2°38.89 11.9 10 19.3 101510 77
2004-07-29 10:03:22 51°20.661 2°38.92 12.3 9 19.4 101510 77
2004-07-29 10:03:26 51°20.668 2°38.943 12.4 10 19.4 101510 77
2004-07-29 10:03:32 51°20.678 2°38.979 11.8 9 19.4 101510 77
2004-07-29 10:03:37 51°20.686 2°39.009 11.9 10 19.4 101510 77
2004-07-29 10:03:42 51°20.694 2°39.039 12.1 9 19.3 101510 77
2004-07-29 10:03:47 51°20.702 2°39.069 11.3 8 19.3 101510 77
2004-07-29 10:03:52 51°20.71 2°39.099 11.6 9 19.3 101500 77
2004-07-29 10:03:57 51°20.718 2°39.129 11.6 10 19.3 101500 77
2004-07-29 10:04:01 51°20.724 2°39.153 11.6 8 19.3 101510 76
2004-07-29 10:04:06 51°20.732 2°39.182 11.5   19.3 101510 76
2004-07-29 10:04:12 51°20.742 2°39.218 11.3 9 19.4 101500 77
2004-07-29 10:04:16 51°20.748 2°39.242 11.2 11 19.4 101500 77
2004-07-29 10:04:22 51°20.758 2°39.278 11.4 11 19.4 101510 77
2004-07-29 10:04:27 51°20.766 2°39.307 11 10 19.4 101510 77
2004-07-29 10:04:32 51°20.774 2°39.337 11.5 10 19.4 101500 77
2004-07-29 10:04:37 51°20.783 2°39.367 11.7 12 19.4 101500 77
2004-07-29 10:04:40 51°20.788 2°39.384 11.4 10 19.4 101510 77
2004-07-29 10:04:46 51°20.798 2°39.42 11.3 9 19.4 101510 77
2004-07-29 10:04:52 51°20.807 2°39.456 11.4 13 19.4 101510 77
2004-07-29 10:04:57 51°20.815 2°39.485 12.2 10 19.4 101510 77
2004-07-29 10:05:01 51°20.822 2°39.509 11.6 8 19.4 101510 77
2004-07-29 10:05:06 51°20.83 2°39.539 12.1 12 19.4 101510 77
2004-07-29 10:05:12 51°20.84 2°39.574 11.7 10 19.4 101510 77
2004-07-29 10:05:17 51°20.848 2°39.604 11.2 12 19.4 101510 77
2004-07-29 10:05:22 51°20.856 2°39.633 11.8 11 19.4 101510 77
2004-07-29 10:05:26 51°20.862 2°39.657 12 10 19.4 101510 77
2004-07-29 10:05:32 51°20.871 2°39.693 11.7 8 19.4 101510 76
2004-07-29 10:05:37 51°20.879 2°39.722 11.7 10 19.4 101510 76
2004-07-29 10:05:42 51°20.887 2°39.752 11.9 11 19.4 101500 77
2004-07-29 10:05:46 51°20.894 2°39.776 11.7 11 19.4 101500 77
2004-07-29 10:05:52 51°20.904 2°39.811 11.5 10 19.4 101500 77
2004-07-29 10:05:57 51°20.912 2°39.84 11.7 14 19.4 101500 77
2004-07-29 10:06:01 51°20.919 2°39.864 11.2 12 19.4 101500 77
2004-07-29 10:06:05 51°20.926 2°39.886 11.1 11 19.4 101500 77
2004-07-29 10:06:12 51°20.94 2°39.925 11.1 15 19.4 101500 77
2004-07-29 10:06:17 51°20.951 2°39.953 11.2 16 19.4 101500 77
2004-07-29 10:06:22 51°20.962 2°39.979 11 15 19.5 101500 77
2004-07-29 10:06:27 51°20.974 2°40.006 11 16 19.5 101500 77
2004-07-29 10:06:32 51°20.986 2°40.032 11.1 16 19.5 101500 78
2004-07-29 10:06:36 51°20.996 2°40.053 11.9 15 19.5 101500 78
2004-07-29 10:06:42 51°21.011 2°40.084 11.4 14 19.5 101510 78
2004-07-29 10:06:44 51°21.016 2°40.094 11.3 14 19.5 101510 78
2004-07-29 10:06:52 51°21.035 2°40.137 11 14 19.5 101500 78
2004-07-29 10:06:57 51°21.047 2°40.164 12.3 15 19.5 101500 78
2004-07-29 10:07:02 51°21.059 2°40.191 12.1 12 19.5 101510 78
2004-07-29 10:07:07 51°21.07 2°40.218 11.6 12 19.5 101510 78
2004-07-29 10:07:12 51°21.082 2°40.245 11.4 15 19.5 101500 78
2004-07-29 10:07:17 51°21.094 2°40.271 11.1 14 19.5 101500 78
2004-07-29 10:07:22 51°21.107 2°40.297 11.2 18 19.5 101500 78
2004-07-29 10:07:26 51°21.118 2°40.316 11.5 20 19.5 101500 78
2004-07-29 10:07:32 51°21.135 2°40.344 11.8 19 19.5 101500 78
2004-07-29 10:07:37 51°21.15 2°40.366 11.5 22 19.5 101500 78
2004-07-29 10:07:41 51°21.163 2°40.383 11.1 21 19.5 101500 78
2004-07-29 10:07:46 51°21.179 2°40.403 10.9 24 19.5 101500 78
2004-07-29 10:07:52 51°21.199 2°40.426 10.7 23 19.5 101500 78
2004-07-29 10:07:55 51°21.21 2°40.435 11.1 29 19.5 101500 78
2004-07-29 10:08:02 51°21.235 2°40.457 10.4 29 19.4 101500 78
2004-07-29 10:08:07 51°21.254 2°40.468 10.6 31 19.4 101500 78
2004-07-29 10:08:12 51°21.273 2°40.479 10.7 31 19.5 101500 78
2004-07-29 10:08:17 51°21.293 2°40.487 10.8 35 19.5 101500 78
2004-07-29 10:08:22 51°21.312 2°40.494 10.3 37 19.4 101500 78
2004-07-29 10:08:27 51°21.332 2°40.497 10 37 19.4 101500 78
2004-07-29 10:08:32 51°21.352 2°40.499 9.8 38 19.5 101500 78
2004-07-29 10:08:37 51°21.372 2°40.5 10.2 40 19.5 101500 78
2004-07-29 10:08:41 51°21.389 2°40.5 9.4 40 19.4 101500 78
2004-07-29 10:08:46 51°21.409 2°40.499 10 40 19.4 101500 78
2004-07-29 10:08:52 51°21.433 2°40.498 9.8 40 19.4 101500 78
2004-07-29 10:08:57 51°21.453 2°40.496 9.4 37 19.4 101500 78
2004-07-29 10:09:01 51°21.469 2°40.494 9.8 41 19.4 101500 78
2004-07-29 10:09:06 51°21.489 2°40.492 9.4 35 19.4 101500 78
2004-07-29 10:09:12 51°21.514 2°40.49 9.8 39 19.3 101500 77
2004-07-29 10:09:17 51°21.534 2°40.488 9.4 39 19.3 101500 77
2004-07-29 10:09:21 51°21.55 2°40.487 9.5 35 19.3 101500 77
2004-07-29 10:09:26 51°21.57 2°40.487 9.7 39 19.3 101500 77
2004-07-29 10:09:32 51°21.595 2°40.487 9.8 36 19.2 101500 77
2004-07-29 10:09:37 51°21.615 2°40.487 9.8 37 19.2 101500 77
2004-07-29 10:09:42 51°21.635 2°40.487 9.6 39 19.2 101500 78
2004-07-29 10:09:46 51°21.651 2°40.488 9.6 35 19.2 101500 78
2004-07-29 10:09:52 51°21.676 2°40.488 9.9 39 19.2 101500 78
2004-07-29 10:09:56 51°21.692 2°40.489 9.7 33 19.2 101500 78
2004-07-29 10:10:02 51°21.716 2°40.49 10.1 39 19.2 101500 78
2004-07-29 10:10:05 51°21.728 2°40.49 9.7 39 19.2 101500 78
2004-07-29 10:10:12 51°21.756 2°40.491 9.7 38 19.2 101500 78
2004-07-29 10:10:17 51°21.777 2°40.491 9.6 38 19.2 101500 78
2004-07-29 10:10:22 51°21.797 2°40.49 9.5 39 19.1 101500 78
2004-07-29 10:10:24 51°21.805 2°40.49 9.7 38 19.1 101500 78
2004-07-29 10:10:32 51°21.837 2°40.489 9.4 38 19.1 101500 78
2004-07-29 10:10:37 51°21.857 2°40.488 9.6 40 19.1 101500 78
2004-07-29 10:10:42 51°21.877 2°40.487 9.7 40 19.1 101500 78
2004-07-29 10:10:47 51°21.897 2°40.486 9.6 39 19.1 101500 78
2004-07-29 10:10:52 51°21.918 2°40.485 9.6 42 19.1 101500 78
2004-07-29 10:10:57 51°21.938 2°40.484 9.3 34 19.1 101500 78
2004-07-29 10:11:02 51°21.958 2°40.483 9.4 36 19.1 101500 78
2004-07-29 10:11:04 51°21.966 2°40.482 9.5 39 19.1 101500 78
2004-07-29 10:11:12 51°21.998 2°40.481 9.4 39 19.1 101510 78
2004-07-29 10:11:17 51°22.018 2°40.48 10.2 39 19.1 101510 78
2004-07-29 10:11:22 51°22.039 2°40.479 9.3 36 19.1 101500 78
2004-07-29 10:11:25 51°22.051 2°40.479 9.5 37 19.1 101500 78
2004-07-29 10:11:32 51°22.079 2°40.478 9.9 38 19.1 101500 78
2004-07-29 10:11:37 51°22.099 2°40.477 9.5 37 19.1 101500 78
2004-07-29 10:11:42 51°22.119 2°40.476 9.1 35 19.1 101510 78
2004-07-29 10:11:46 51°22.135 2°40.476 9.6 41 19.1 101510 78
2004-07-29 10:11:52 51°22.16 2°40.475 9.8 37 19 101510 78
2004-07-29 10:11:57 51°22.18 2°40.475 9.1 38 19 101510 78
2004-07-29 10:12:02 51°22.2 2°40.474 9.4 38 19 101510 78
2004-07-29 10:12:05 51°22.212 2°40.474 9.2 35 19 101510 78
2004-07-29 10:12:12 51°22.24 2°40.474 9.6 35 19 101500 78
2004-07-29 10:12:17 51°22.26 2°40.474 9.7 39 19 101500 78
2004-07-29 10:12:22 51°22.281 2°40.473 9.3 36 19 101510 78
2004-07-29 10:12:27 51°22.301 2°40.473 9.6 38 19 101510 78
2004-07-29 10:12:32 51°22.321 2°40.473 9.8 37 19 101510 78
2004-07-29 10:12:37 51°22.341 2°40.473 9.1 37 19 101510 78
2004-07-29 10:12:42 51°22.361 2°40.473 9.4 36 19 101510 79
2004-07-29 10:12:46 51°22.377 2°40.473 9.6 38 19 101510 79
2004-07-29 10:12:52 51°22.402 2°40.472 9.6 37 19 101510 79
2004-07-29 10:12:57 51°22.422 2°40.472 9.3 33 19 101510 79
2004-07-29 10:13:02 51°22.442 2°40.471 9.6 37 19 101510 79
2004-07-29 10:13:07 51°22.462 2°40.47 9 35 19 101510 79
2004-07-29 10:13:12 51°22.482 2°40.469 9.8 35 19 101510 79
2004-07-29 10:13:17 51°22.503 2°40.468 9.4 36 19 101510 79
2004-07-29 10:13:22 51°22.523 2°40.467 9.3 37 19 101510 79
2004-07-29 10:13:25 51°22.535 2°40.467 9.4 39 19 101510 79
2004-07-29 10:13:32 51°22.563 2°40.467 10.3 39 19 101510 79
2004-07-29 10:13:37 51°22.584 2°40.467 9.7 37 19 101510 79
2004-07-29 10:13:42 51°22.604 2°40.467 9.5 36 19 101510 79
2004-07-29 10:13:46 51°22.62 2°40.467 9.6 35 19 101510 79
2004-07-29 10:13:52 51°22.644 2°40.467 9.3 35 19 101510 78
2004-07-29 10:13:57 51°22.665 2°40.467 9.8 34 19 101510 78
2004-07-29 10:14:01 51°22.681 2°40.468 9.4 34 19 101510 78
2004-07-29 10:14:07 51°22.705 2°40.468 9.4 32 19 101510 78
2004-07-29 10:14:12 51°22.726 2°40.467 9.7 33 19 101510 79
2004-07-29 10:14:17 51°22.746 2°40.467 9.1 35 19 101510 79
2004-07-29 10:14:22 51°22.766 2°40.467 9.5 37 19 101500 79
2004-07-29 10:14:26 51°22.782 2°40.466 9.3 37 19 101500 79
2004-07-29 10:14:32 51°22.806 2°40.466 9.5 31 19.1 101510 79
2004-07-29 10:14:37 51°22.826 2°40.465 9.5 35 19.1 101510 79
2004-07-29 10:14:42 51°22.847 2°40.465 9.5 35 19.1 101510 79
2004-07-29 10:14:45 51°22.859 2°40.464 9.8 36 19.1 101510 79
2004-07-29 10:14:52 51°22.887 2°40.464 9.7 34 19.1 101510 79
2004-07-29 10:14:57 51°22.907 2°40.463 9.2 37 19.1 101510 79
2004-07-29 10:15:02 51°22.927 2°40.463 9.3 37 19 101510 79
2004-07-29 10:15:04 51°22.935 2°40.463 9.7 38 19 101510 79
2004-07-29 10:15:12 51°22.968 2°40.463 9.5 33 19.1 101510 79
2004-07-29 10:15:17 51°22.988 2°40.463 9.3 35 19.1 101510 79
2004-07-29 10:15:22 51°23.008 2°40.463 9.2 34 19.1 101510 79
2004-07-29 10:15:27 51°23.028 2°40.463 9.8 34 19.1 101510 79
2004-07-29 10:15:32 51°23.049 2°40.463 8.8 34 19.1 101510 79
2004-07-29 10:15:37 51°23.069 2°40.463 9.4 36 19.1 101510 79
2004-07-29 10:15:41 51°23.085 2°40.463 9.2 37 19.1 101510 79
2004-07-29 10:15:46 51°23.106 2°40.463 9.3 35 19.1 101510 79
2004-07-29 10:15:52 51°23.13 2°40.463 9.6 37 19.1 101510 79
2004-07-29 10:15:56 51°23.146 2°40.463 9.1 38 19.1 101510 79
2004-07-29 10:16:02 51°23.17 2°40.464 9.2 36 19.1 101510 79
2004-07-29 10:16:05 51°23.182 2°40.464 9.6 36 19.1 101510 79
2004-07-29 10:16:12 51°23.211 2°40.464 9.2 37 19 101510 79
2004-07-29 10:16:17 51°23.231 2°40.464 8.9 32 19 101510 79
2004-07-29 10:16:22 51°23.251 2°40.463 9.3 34 19 101510 79
2004-07-29 10:16:27 51°23.271 2°40.463 9 36 19 101510 79
2004-07-29 10:16:32 51°23.292 2°40.463 9.2 33 19 101510 79
2004-07-29 10:16:35 51°23.304 2°40.462 9.6 38 19 101510 79
2004-07-29 10:16:41 51°23.328 2°40.462 9.5 37 19.1 101510 80
2004-07-29 10:16:47 51°23.353 2°40.463 9 31 19.1 101510 80
2004-07-29 10:16:52 51°23.373 2°40.465 9.7 33 19 101510 80
2004-07-29 10:16:57 51°23.393 2°40.471 10 33 19 101510 80
2004-07-29 10:17:02 51°23.412 2°40.478 10.3 33 19 101510 79
2004-07-29 10:17:07 51°23.432 2°40.487 9.8   19 101510 79
2004-07-29 10:17:12 51°23.451 2°40.496 9.8 29 19 101510 80
2004-07-29 10:17:17 51°23.471 2°40.507 9.6 28 19 101510 80
2004-07-29 10:17:22 51°23.49 2°40.518 10.1 28 19 101510 80
2004-07-29 10:17:27 51°23.51 2°40.53 10.2 28 19 101510 80
2004-07-29 10:17:32 51°23.529 2°40.542 10.1 26 19 101510 80
2004-07-29 10:17:37 51°23.547 2°40.557 10.8 26 19 101510 80
2004-07-29 10:17:41 51°23.562 2°40.569 10.6 24 19.1 101510 80
2004-07-29 10:17:45 51°23.576 2°40.583 11 23 19.1 101510 80
2004-07-29 10:17:52 51°23.601 2°40.609 10.4 23 19.1 101510 80
2004-07-29 10:17:57 51°23.617 2°40.629 10.9 22 19.1 101510 80
2004-07-29 10:18:02 51°23.634 2°40.649 10.9 23 19.1 101510 80
2004-07-29 10:18:07 51°23.651 2°40.668 10.6 23 19.1 101510 80
2004-07-29 10:18:12 51°23.668 2°40.688 10.7 21 19.1 101510 80
2004-07-29 10:18:17 51°23.685 2°40.708 10.4 24 19.1 101510 80
2004-07-29 10:18:22 51°23.702 2°40.727 10.8 21 19.2 101510 80
2004-07-29 10:18:26 51°23.716 2°40.743 11 21 19.2 101510 80
2004-07-29 10:18:32 51°23.737 2°40.765 10.7 25 19.2 101510 80
2004-07-29 10:18:37 51°23.755 2°40.783 10.2 23 19.2 101510 80
2004-07-29 10:18:42 51°23.773 2°40.8 10.7 23 19.2 101510 80
2004-07-29 10:18:46 51°23.787 2°40.814 10.8 26 19.2 101510 80
2004-07-29 10:18:52 51°23.809 2°40.835 11 27 19.2 101510 80
2004-07-29 10:18:57 51°23.827 2°40.852 11.2 24 19.2 101510 80
2004-07-29 10:19:01 51°23.841 2°40.866 10.7 23 19.3 101510 80
2004-07-29 10:19:06 51°23.859 2°40.884 10.5 25 19.3 101510 80
2004-07-29 10:19:12 51°23.88 2°40.904 11.1 25 19.3 101500 80
2004-07-29 10:19:15 51°23.891 2°40.915 11.3 25 19.3 101500 80
2004-07-29 10:19:22 51°23.917 2°40.938 10.7 25 19.3 101510 80
2004-07-29 10:19:27 51°23.935 2°40.955 10.8 25 19.3 101510 80
2004-07-29 10:19:32 51°23.954 2°40.971 11.3 26 19.3 101500 80
2004-07-29 10:19:36 51°23.968 2°40.984 10.9 23 19.3 101500 80
2004-07-29 10:19:42 51°23.99 2°41.004 10.8 23 19.3 101500 80
2004-07-29 10:19:45 51°24.001 2°41.013 11.4 25 19.3 101500 80
2004-07-29 10:19:52 51°24.027 2°41.037 10.8 26 19.3 101510 80
2004-07-29 10:19:57 51°24.045 2°41.053 11.1 23 19.3 101510 80
2004-07-29 10:20:02 51°24.064 2°41.07 11 24 19.3 101500 80
2004-07-29 10:20:05 51°24.075 2°41.08 10.9 25 19.3 101500 80
2004-07-29 10:20:12 51°24.101 2°41.104 10.8 23 19.3 101500 80
2004-07-29 10:20:17 51°24.119 2°41.121 10.3 23 19.3 101500 80
2004-07-29 10:20:22 51°24.137 2°41.137 10.7 25 19.3 101510 80
2004-07-29 10:20:25 51°24.149 2°41.147 11.2 23 19.3 101510 80
2004-07-29 10:20:32 51°24.174 2°41.17 11.2 23 19.3 101500 80
2004-07-29 10:20:37 51°24.193 2°41.186 11.3 24 19.3 101500 80
2004-07-29 10:20:42 51°24.21 2°41.204 11 23 19.3 101500 80
2004-07-29 10:20:45 51°24.221 2°41.214 10.3 24 19.3 101500 80
2004-07-29 10:20:52 51°24.246 2°41.239 11.6 23 19.3 101500 80
2004-07-29 10:20:57 51°24.264 2°41.256 11.3 25 19.3 101500 80
2004-07-29 10:21:02 51°24.282 2°41.274 10.9 23 19.3 101500 80
2004-07-29 10:21:05 51°24.293 2°41.285 11.6 25 19.3 101500 80
2004-07-29 10:21:12 51°24.319 2°41.31 10.6 24 19.3 101500 80
2004-07-29 10:21:17 51°24.337 2°41.327 11.4 26 19.3 101500 80
2004-07-29 10:21:22 51°24.355 2°41.345 10.8 24 19.3 101500 80
2004-07-29 10:21:25 51°24.366 2°41.355 11.1 26 19.3 101500 80
2004-07-29 10:21:32 51°24.391 2°41.379 11.1 27 19.3 101500 80
2004-07-29 10:21:37 51°24.409 2°41.397 11.3 24 19.3 101500 80
2004-07-29 10:21:42 51°24.428 2°41.414 11.3 27 19.3 101500 80
2004-07-29 10:21:45 51°24.439 2°41.424 10.6 24 19.3 101500 80
2004-07-29 10:21:52 51°24.464 2°41.449 10.8 25 19.3 101500 80
2004-07-29 10:21:57 51°24.483 2°41.466 10.5 27 19.3 101500 80
2004-07-29 10:22:02 51°24.501 2°41.483 10.8 26 19.3 101500 80
2004-07-29 10:22:05 51°24.512 2°41.493 10.7 29 19.3 101500 80
2004-07-29 10:22:12 51°24.537 2°41.517 11.2 27 19.3 101500 80
2004-07-29 10:22:17 51°24.556 2°41.534 10.8 27 19.3 101500 80
2004-07-29 10:22:22 51°24.574 2°41.551 10 27 19.3 101500 80
2004-07-29 10:22:25 51°24.584 2°41.562 11.4 27 19.3 101500 80
2004-07-29 10:22:32 51°24.609 2°41.586 10.4 27 19.3 101500 80
2004-07-29 10:22:37 51°24.627 2°41.604 10.8 27 19.3 101500 80
2004-07-29 10:22:42 51°24.645 2°41.621 11.3 27 19.3 101500 80
2004-07-29 10:22:45 51°24.656 2°41.631 10.8 26 19.3 101500 80
2004-07-29 10:22:52 51°24.682 2°41.655 10.3 25 19.3 101500 80
2004-07-29 10:22:57 51°24.7 2°41.671 10.8 27 19.3 101500 80
2004-07-29 10:23:02 51°24.718 2°41.688 11.3 29 19.3 101490 80
2004-07-29 10:23:05 51°24.729 2°41.698 11.5 27 19.3 101490 80
2004-07-29 10:23:12 51°24.754 2°41.722 11.1 25 19.3 101500 80
2004-07-29 10:23:17 51°24.772 2°41.739 10.2 26 19.3 101500 80
2004-07-29 10:23:22 51°24.79 2°41.757 10.7 23 19.3 101500 80
2004-07-29 10:23:25 51°24.801 2°41.767 10.8 27 19.3 101500 80
2004-07-29 10:23:32 51°24.826 2°41.791 11 27 19.3 101500 80
2004-07-29 10:23:37 51°24.844 2°41.808 11.2 27 19.3 101500 80
2004-07-29 10:23:42 51°24.862 2°41.825 10.7 25 19.3 101500 80
2004-07-29 10:23:45 51°24.873 2°41.835 10.6 25 19.3 101500 80
2004-07-29 10:23:52 51°24.898 2°41.858 11.8 26 19.3 101500 80
2004-07-29 10:23:57 51°24.917 2°41.874 11.3 26 19.3 101500 80
2004-07-29 10:24:02 51°24.935 2°41.891 10.9 29 19.3 101500 79
2004-07-29 10:24:05 51°24.946 2°41.901 11.3 26 19.3 101500 79
2004-07-29 10:24:12 51°24.971 2°41.925 11 26 19.3 101500 79
2004-07-29 10:24:17 51°24.988 2°41.942 10.4 26 19.3 101500 79
2004-07-29 10:24:22 51°25.006 2°41.96 9.9 24 19.3 101490 79
2004-07-29 10:24:25 51°25.017 2°41.971 10 23 19.3 101490 79
2004-07-29 10:24:32 51°25.041 2°41.997 11.1 24 19.3 101500 79
2004-07-29 10:24:37 51°25.058 2°42.016 11.3 23 19.3 101500 79
2004-07-29 10:24:42 51°25.076 2°42.034 10.7 25 19.3 101500 79
2004-07-29 10:24:45 51°25.086 2°42.045 10.5 26 19.3 101500 79
2004-07-29 10:24:52 51°25.11 2°42.07 10.3 23 19.3 101500 79
2004-07-29 10:24:57 51°25.128 2°42.089 10.2 21 19.3 101500 79
2004-07-29 10:25:02 51°25.145 2°42.107 10.9 23 19.3 101500 79
2004-07-29 10:25:07 51°25.162 2°42.125 9.9 21 19.3 101500 79
2004-07-29 10:25:12 51°25.18 2°42.144 10.6 23 19.3 101500 79
2004-07-29 10:25:17 51°25.197 2°42.162 11.2 23 19.3 101500 79
2004-07-29 10:25:22 51°25.214 2°42.18 11.3 24 19.4 101500 79
2004-07-29 10:25:27 51°25.232 2°42.198 10.8 24 19.4 101500 79
2004-07-29 10:25:32 51°25.249 2°42.216 10 21 19.3 101500 79
2004-07-29 10:25:36 51°25.263 2°42.231 9.8 22 19.3 101500 79
2004-07-29 10:25:42 51°25.284 2°42.252 11 23 19.3 101490 79
2004-07-29 10:25:45 51°25.294 2°42.263 11.2 24 19.3 101490 79
2004-07-29 10:25:52 51°25.319 2°42.287 11.8 25 19.3 101500 79
2004-07-29 10:25:57 51°25.336 2°42.305 10.9 25 19.3 101500 79
2004-07-29 10:26:01 51°25.35 2°42.319 11.3 23 19.4 101500 80
2004-07-29 10:26:06 51°25.368 2°42.336 10.2 23 19.4 101500 80
2004-07-29 10:26:12 51°25.389 2°42.358 10 24 19.3 101490 79
2004-07-29 10:26:15 51°25.399 2°42.368 9.7 21 19.3 101490 79
2004-07-29 10:26:22 51°25.423 2°42.393 10.1 21 19.4 101500 79
2004-07-29 10:26:24 51°25.431 2°42.401 10.3 20 19.4 101500 79
2004-07-29 10:26:32 51°25.459 2°42.429 11.3 23 19.3 101500 79
2004-07-29 10:26:37 51°25.476 2°42.447 10.7 22 19.3 101500 79
2004-07-29 10:26:42 51°25.494 2°42.464 10.3 23 19.4 101500 79
2004-07-29 10:26:45 51°25.505 2°42.474 9.5 21 19.4 101500 79
2004-07-29 10:26:52 51°25.53 2°42.498 9.9 22 19.4 101500 80
2004-07-29 10:26:57 51°25.547 2°42.515 9.5 23 19.4 101500 80
2004-07-29 10:27:02 51°25.565 2°42.531 9.8 20 19.4 101490 79
2004-07-29 10:27:06 51°25.58 2°42.545 10.9 25 19.4 101490 79
2004-07-29 10:27:12 51°25.601 2°42.565 10.5 22 19.4 101510 80
2004-07-29 10:27:16 51°25.615 2°42.579 10.6 22 19.4 101510 80
2004-07-29 10:27:22 51°25.637 2°42.601 9.9 22 19.4 101500 80
2004-07-29 10:27:25 51°25.647 2°42.612 10.6 26 19.4 101500 80
2004-07-29 10:27:32 51°25.671 2°42.637 10.5 23 19.4 101500 80
2004-07-29 10:27:34 51°25.679 2°42.644 10.3 24 19.4 101500 80
2004-07-29 10:27:46 51°25.721 2°42.687 11 26 19.4 101500 80
2004-07-29 10:27:52 51°25.742 2°42.709 10.3 23 19.4 101500 80
2004-07-29 10:27:57 51°25.76 2°42.727 10.6 23 19.4 101500 80
2004-07-29 10:28:02 51°25.777 2°42.744 10.7 23 19.4 101500 80
2004-07-29 10:28:05 51°25.788 2°42.755 10.7 24 19.4 101500 80
2004-07-29 10:28:12 51°25.812 2°42.78 10.5 22 19.3 101500 80
2004-07-29 10:28:16 51°25.827 2°42.795 10.9 24 19.3 101500 80
2004-07-29 10:28:22 51°25.848 2°42.816 10.6 28 19.4 101500 80
2004-07-29 10:28:26 51°25.862 2°42.831 10.8 28 19.4 101500 80
2004-07-29 10:28:32 51°25.883 2°42.851 10.2 25 19.3 101500 80
2004-07-29 10:28:37 51°25.901 2°42.869 10.3 24 19.3 101500 80
2004-07-29 10:28:42 51°25.919 2°42.886 10.4 21 19.3 101500 80
2004-07-29 10:28:46 51°25.933 2°42.9 10.4 22 19.3 101500 80
2004-07-29 10:28:52 51°25.955 2°42.921 10.2 25 19.4 101500 80
2004-07-29 10:28:57 51°25.972 2°42.939 10.2 24 19.4 101500 80
2004-07-29 10:29:02 51°25.99 2°42.957 9.9 23 19.3 101500 80
2004-07-29 10:29:05 51°26.001 2°42.967 10.4 20 19.3 101500 80
2004-07-29 10:29:12 51°26.025 2°42.992 10.6 24 19.4 101500 80
2004-07-29 10:29:17 51°26.043 2°43.01 10.3 22 19.4 101500 80
2004-07-29 10:29:22 51°26.06 2°43.028 10.4 26 19.4 101500 80